Time;durP1;ratioP1;P1;durP2;ratioP2;P2;SDS_P1;SDS_P2;PMS_P1;PMS_P2;Temp;Humidity;BMP_temperature;BMP_pressure;BME280_temperature;BME280_humidity;BME280_pressure;Samples;Min_cycle;Max_cycle;Signal;HPM_P1;HPM_P2
2023/05/18 00:02:20;;;;;;;4.72;1.35;;;;;;;;;;10490306;28;20020;-67
2023/05/18 00:07:21;;;;;;;3.22;1.40;;;;;;;;;;10488783;28;20025;-67
2023/05/18 00:12:21;;;;;;;3.72;1.30;;;;;;;;;;10463933;28;20025;-67
2023/05/18 00:17:22;;;;;;;4.40;1.55;;;;;;;;;;10489940;28;20025;-67
2023/05/18 00:22:25;;;;;;;4.15;1.40;;;;;;;;;;10489733;28;20028;-67
2023/05/18 00:27:25;;;;;;;2.55;1.30;;;;;;;;;;10486788;28;20020;-66
2023/05/18 00:32:26;;;;;;;1.67;1.00;;;;;;;;;;10487513;28;20128;-65
2023/05/18 00:37:27;;;;;;;1.80;1.17;;;;;;;;;;10488560;28;20033;-67
2023/05/18 00:42:27;;;;;;;4.32;1.20;;;;;;;;;;10478718;28;20024;-64
2023/05/18 00:47:28;;;;;;;5.18;1.38;;;;;;;;;;10484484;28;20028;-64
2023/05/18 00:52:28;;;;;;;1.27;1.10;;;;;;;;;;10487766;28;20040;-65
2023/05/18 00:57:29;;;;;;;1.77;1.00;;;;;;;;;;10486350;28;20123;-65
2023/05/18 01:02:30;;;;;;;6.35;1.48;;;;;;;;;;10486478;28;20124;-65
2023/05/18 01:07:32;;;;;;;4.70;1.23;;;;;;;;;;10487792;28;20502;-66
2023/05/18 01:12:48;;;;;;;2.75;1.38;;;;;;;;;;10487561;28;20025;-65
2023/05/18 01:18:05;;;;;;;4.40;1.35;;;;;;;;;;10487738;28;20259;-66
2023/05/18 01:23:51;;;;;;;3.50;1.10;;;;;;;;;;10491067;28;20065;-65
2023/05/18 01:28:53;;;;;;;3.33;1.00;;;;;;;;;;10492130;28;20041;-65
2023/05/18 01:33:54;;;;;;;2.92;1.23;;;;;;;;;;10494548;28;20020;-66
2023/05/18 01:38:56;;;;;;;1.67;1.10;;;;;;;;;;10496547;28;20028;-65
2023/05/18 01:44:21;;;;;;;2.10;1.10;;;;;;;;;;10494590;28;20044;-65
2023/05/18 01:49:34;;;;;;;2.25;1.33;;;;;;;;;;10488482;28;20242;-66
2023/05/18 01:54:40;;;;;;;2.05;1.30;;;;;;;;;;10484777;28;20025;-66
2023/05/18 01:59:41;;;;;;;3.63;1.50;;;;;;;;;;10491737;28;20074;-67
2023/05/18 02:04:42;;;;;;;1.55;1.15;;;;;;;;;;10480276;28;20028;-66
2023/05/18 02:09:43;;;;;;;2.88;1.30;;;;;;;;;;10494046;28;20033;-67
2023/05/18 02:14:43;;;;;;;2.70;1.30;;;;;;;;;;10481839;28;20021;-66
2023/05/18 02:19:44;;;;;;;5.25;1.60;;;;;;;;;;10490471;28;20029;-67
2023/05/18 02:24:45;;;;;;;3.08;1.70;;;;;;;;;;10479099;28;20116;-65
2023/05/18 02:29:46;;;;;;;3.55;1.55;;;;;;;;;;10493244;28;20078;-65
2023/05/18 02:34:51;;;;;;;3.00;1.40;;;;;;;;;;10492409;28;20032;-67
2023/05/18 02:39:52;;;;;;;4.35;1.67;;;;;;;;;;10492780;28;20075;-67
2023/05/18 02:44:53;;;;;;;4.50;2.03;;;;;;;;;;10492126;28;20504;-67
2023/05/18 02:49:53;;;;;;;5.20;1.50;;;;;;;;;;10492135;28;20376;-66
2023/05/18 02:54:54;;;;;;;2.90;1.35;;;;;;;;;;10490891;28;20020;-67
2023/05/18 02:59:56;;;;;;;3.00;1.20;;;;;;;;;;10484692;28;20033;-67
2023/05/18 03:04:56;;;;;;;5.20;1.45;;;;;;;;;;10489662;28;20536;-66
2023/05/18 03:09:57;;;;;;;2.13;1.33;;;;;;;;;;10479959;28;20081;-66
2023/05/18 03:14:58;;;;;;;4.70;1.30;;;;;;;;;;10479715;28;20029;-67
2023/05/18 03:19:58;;;;;;;2.40;1.30;;;;;;;;;;10491696;28;20032;-67
2023/05/18 03:25:01;;;;;;;1.88;1.50;;;;;;;;;;10490486;28;20029;-66
2023/05/18 03:30:02;;;;;;;2.55;1.90;;;;;;;;;;10490183;28;20025;-67
2023/05/18 03:35:04;;;;;;;3.90;1.83;;;;;;;;;;10488063;28;20024;-66
2023/05/18 03:40:12;;;;;;;7.63;1.85;;;;;;;;;;10489298;28;20028;-67
2023/05/18 03:45:13;;;;;;;1.98;1.52;;;;;;;;;;10488616;28;20032;-67
2023/05/18 03:50:13;;;;;;;2.58;1.65;;;;;;;;;;10489034;28;20036;-67
2023/05/18 03:55:14;;;;;;;5.55;1.48;;;;;;;;;;10489272;28;20021;-67
2023/05/18 04:00:15;;;;;;;7.95;1.98;;;;;;;;;;10489809;28;20032;-67
2023/05/18 04:05:15;;;;;;;2.60;1.65;;;;;;;;;;10489800;28;20103;-67
2023/05/18 04:10:18;;;;;;;7.10;1.83;;;;;;;;;;10487638;28;20021;-67
2023/05/18 04:15:19;;;;;;;6.53;1.67;;;;;;;;;;10487454;28;20013;-67
2023/05/18 04:20:19;;;;;;;5.43;1.60;;;;;;;;;;10487644;28;20483;-67
2023/05/18 04:25:20;;;;;;;6.88;1.70;;;;;;;;;;10487112;28;20028;-67
2023/05/18 04:30:22;;;;;;;4.43;1.70;;;;;;;;;;10486733;28;20031;-67
2023/05/18 04:35:24;;;;;;;3.10;1.65;;;;;;;;;;10488306;28;20278;-67
2023/05/18 04:40:25;;;;;;;9.95;2.03;;;;;;;;;;10468755;28;20032;-66
2023/05/18 04:45:26;;;;;;;8.07;1.75;;;;;;;;;;10476672;28;20396;-67
2023/05/18 04:50:27;;;;;;;6.00;2.20;;;;;;;;;;10474279;28;20017;-67
2023/05/18 04:55:29;;;;;;;4.78;1.90;;;;;;;;;;10463384;28;20318;-67
2023/05/18 05:00:30;;;;;;;5.63;1.60;;;;;;;;;;10482669;28;20050;-66
2023/05/18 05:05:31;;;;;;;4.55;1.98;;;;;;;;;;10485960;28;20024;-66
2023/05/18 05:10:31;;;;;;;6.05;2.00;;;;;;;;;;10483498;28;20024;-67
2023/05/18 05:15:33;;;;;;;2.55;1.75;;;;;;;;;;10487938;28;20021;-67
2023/05/18 05:20:33;;;;;;;3.80;1.80;;;;;;;;;;10487047;28;20514;-68
2023/05/18 05:25:34;;;;;;;6.03;1.73;;;;;;;;;;10484226;28;20031;-67
2023/05/18 05:30:35;;;;;;;2.83;2.10;;;;;;;;;;10485049;28;20032;-66
2023/05/18 05:35:35;;;;;;;7.10;2.35;;;;;;;;;;10480254;28;20392;-65
2023/05/18 05:40:36;;;;;;;3.20;2.20;;;;;;;;;;10486865;28;20113;-65
2023/05/18 05:45:37;;;;;;;10.98;3.03;;;;;;;;;;10485639;28;20091;-65
2023/05/18 05:50:38;;;;;;;3.83;2.10;;;;;;;;;;10483321;28;20040;-65
2023/05/18 05:55:40;;;;;;;4.28;2.25;;;;;;;;;;10486821;28;20039;-62
2023/05/18 06:00:42;;;;;;;8.35;2.10;;;;;;;;;;10480256;28;20544;-62
2023/05/18 06:05:42;;;;;;;7.78;2.10;;;;;;;;;;10486795;28;20511;-63
2023/05/18 06:10:43;;;;;;;10.27;2.10;;;;;;;;;;10492250;28;20090;-64
2023/05/18 06:15:43;;;;;;;10.75;2.25;;;;;;;;;;10491943;28;20533;-62
2023/05/18 06:20:44;;;;;;;9.27;1.85;;;;;;;;;;10492347;28;20400;-61
2023/05/18 06:25:45;;;;;;;10.00;2.15;;;;;;;;;;10492967;28;20024;-62
2023/05/18 06:30:46;;;;;;;10.30;2.58;;;;;;;;;;10494037;28;20033;-63
2023/05/18 06:35:47;;;;;;;7.18;2.22;;;;;;;;;;10493382;28;20557;-62
2023/05/18 06:40:48;;;;;;;8.15;2.28;;;;;;;;;;10493743;28;20079;-62
2023/05/18 06:45:49;;;;;;;7.85;2.17;;;;;;;;;;10493544;28;20507;-63
2023/05/18 06:50:49;;;;;;;7.78;2.60;;;;;;;;;;10490448;28;20020;-62
2023/05/18 06:55:50;;;;;;;5.07;2.00;;;;;;;;;;10481215;28;20037;-63
2023/05/18 07:00:52;;;;;;;2.67;1.90;;;;;;;;;;10490775;28;20051;-63
2023/05/18 07:05:53;;;;;;;2.85;1.80;;;;;;;;;;10492130;28;20024;-62
2023/05/18 07:10:56;;;;;;;3.25;2.05;;;;;;;;;;10491352;28;20028;-63
2023/05/18 07:15:57;;;;;;;4.65;1.90;;;;;;;;;;10480034;28;20036;-62
2023/05/18 07:20:58;;;;;;;6.18;1.63;;;;;;;;;;10487567;28;20472;-62
2023/05/18 07:25:58;;;;;;;5.82;1.63;;;;;;;;;;10491177;28;20075;-62
2023/05/18 07:30:59;;;;;;;4.30;1.73;;;;;;;;;;10482077;28;20027;-62
2023/05/18 07:36:00;;;;;;;2.70;1.67;;;;;;;;;;10485777;28;20033;-62
2023/05/18 07:41:00;;;;;;;1.83;1.40;;;;;;;;;;10490505;28;20033;-62
2023/05/18 07:46:01;;;;;;;3.83;1.58;;;;;;;;;;10483852;28;20047;-63
2023/05/18 07:51:01;;;;;;;2.80;1.67;;;;;;;;;;10481219;28;20507;-62
2023/05/18 07:56:04;;;;;;;1.40;1.30;;;;;;;;;;10475405;28;20415;-62
2023/05/18 08:01:04;;;;;;;2.30;1.40;;;;;;;;;;10476359;28;20060;-62
2023/05/18 08:06:05;;;;;;;5.82;1.63;;;;;;;;;;10487267;28;20115;-62
2023/05/18 08:11:06;;;;;;;4.93;1.90;;;;;;;;;;10486013;28;20028;-62
2023/05/18 08:16:06;;;;;;;3.97;1.80;;;;;;;;;;10488263;28;20020;-62
2023/05/18 08:21:08;;;;;;;3.45;1.60;;;;;;;;;;10488171;28;20111;-62
2023/05/18 08:26:11;;;;;;;2.53;1.50;;;;;;;;;;10486398;28;20028;-62
2023/05/18 08:31:12;;;;;;;2.90;1.55;;;;;;;;;;10486601;28;20083;-62
2023/05/18 08:36:13;;;;;;;2.85;1.60;;;;;;;;;;10474432;28;20032;-65
2023/05/18 08:41:28;;;;;;;2.25;1.58;;;;;;;;;;10488627;28;20029;-62
2023/05/18 08:46:38;;;;;;;6.38;1.85;;;;;;;;;;10486287;28;20563;-62
2023/05/18 08:51:44;;;;;;;10.25;1.60;;;;;;;;;;10474211;28;20163;-62
2023/05/18 08:56:46;;;;;;;4.50;2.20;;;;;;;;;;10474520;28;20476;-62
2023/05/18 09:01:46;;;;;;;3.78;1.98;;;;;;;;;;10486388;28;20471;-62
2023/05/18 09:06:48;;;;;;;4.63;1.75;;;;;;;;;;10488751;28;20025;-62
2023/05/18 09:11:49;;;;;;;3.42;2.10;;;;;;;;;;10487630;28;20422;-62
2023/05/18 09:16:53;;;;;;;11.02;2.17;;;;;;;;;;10487759;28;20027;-62
2023/05/18 09:21:54;;;;;;;7.50;1.63;;;;;;;;;;10487744;28;20028;-62
2023/05/18 09:26:55;;;;;;;3.55;1.55;;;;;;;;;;10487125;28;20032;-62
2023/05/18 09:31:55;;;;;;;6.82;2.05;;;;;;;;;;10487617;28;20036;-62
2023/05/18 09:36:56;;;;;;;4.25;1.65;;;;;;;;;;10486420;28;20078;-62
2023/05/18 09:41:57;;;;;;;5.80;1.85;;;;;;;;;;10494916;28;20040;-62
2023/05/18 09:46:57;;;;;;;3.75;1.92;;;;;;;;;;10494924;28;20047;-62
2023/05/18 09:52:01;;;;;;;2.95;1.60;;;;;;;;;;10491391;28;20025;-62
2023/05/18 09:57:03;;;;;;;4.18;2.22;;;;;;;;;;10480993;28;20020;-62
2023/05/18 10:02:04;;;;;;;10.30;2.08;;;;;;;;;;10481177;28;20039;-62
2023/05/18 10:07:13;;;;;;;6.45;1.85;;;;;;;;;;10493542;28;20396;-62
2023/05/18 10:12:17;;;;;;;4.93;1.58;;;;;;;;;;10493353;28;20029;-62
2023/05/18 10:17:19;;;;;;;8.88;1.50;;;;;;;;;;10492516;28;20028;-62
2023/05/18 10:22:22;;;;;;;3.40;1.58;;;;;;;;;;10492598;28;20380;-62
2023/05/18 10:27:29;;;;;;;6.75;1.27;;;;;;;;;;10491891;28;20020;-62
2023/05/18 10:32:34;;;;;;;5.60;1.83;;;;;;;;;;10491582;28;20044;-62
2023/05/18 10:37:40;;;;;;;4.53;1.60;;;;;;;;;;10492265;28;20024;-62
2023/05/18 10:42:42;;;;;;;3.30;1.45;;;;;;;;;;10492091;28;20388;-63
2023/05/18 10:47:43;;;;;;;4.40;1.50;;;;;;;;;;10479090;28;20085;-62
2023/05/18 10:52:45;;;;;;;4.18;1.42;;;;;;;;;;10489152;28;20085;-62
2023/05/18 10:57:52;;;;;;;4.97;1.35;;;;;;;;;;10479425;28;20377;-62
2023/05/18 11:02:54;;;;;;;2.20;1.10;;;;;;;;;;10491798;28;20060;-62
2023/05/18 11:08:03;;;;;;;2.65;1.40;;;;;;;;;;10492751;28;20392;-62
2023/05/18 11:13:05;;;;;;;2.78;1.10;;;;;;;;;;10492432;28;20484;-62
2023/05/18 11:18:13;;;;;;;6.80;1.55;;;;;;;;;;10490996;28;20035;-63
2023/05/18 11:23:15;;;;;;;1.57;1.10;;;;;;;;;;10491594;28;20028;-62
2023/05/18 11:28:15;;;;;;;2.38;1.30;;;;;;;;;;10485857;28;20032;-62
2023/05/18 11:33:29;;;;;;;2.95;1.20;;;;;;;;;;10491061;28;20021;-62
2023/05/18 11:38:51;;;;;;;1.40;1.20;;;;;;;;;;10487962;28;20395;-62
2023/05/18 11:44:08;;;;;;;3.42;1.20;;;;;;;;;;10490555;28;20048;-63
2023/05/18 11:49:09;;;;;;;1.38;1.23;;;;;;;;;;10487830;28;20460;-62
2023/05/18 11:54:09;;;;;;;1.30;1.20;;;;;;;;;;10488905;28;20024;-62
2023/05/18 11:59:13;;;;;;;1.25;1.10;;;;;;;;;;10486211;28;20506;-62
2023/05/18 12:04:14;;;;;;;1.73;1.13;;;;;;;;;;10485090;28;20052;-62
2023/05/18 12:09:15;;;;;;;2.10;1.00;;;;;;;;;;10488105;28;20063;-62
2023/05/18 12:14:19;;;;;;;1.50;1.40;;;;;;;;;;10487293;28;20476;-63
2023/05/18 12:19:21;;;;;;;1.73;1.38;;;;;;;;;;10485367;28;20414;-62
2023/05/18 12:24:22;;;;;;;2.33;1.27;;;;;;;;;;10485770;28;20035;-63
2023/05/18 12:29:22;;;;;;;2.15;1.20;;;;;;;;;;10486273;28;20063;-62
2023/05/18 12:34:29;;;;;;;2.50;1.30;;;;;;;;;;10488275;28;20017;-62
2023/05/18 12:39:29;;;;;;;3.15;1.20;;;;;;;;;;10472993;28;20078;-62
2023/05/18 12:44:31;;;;;;;1.92;1.40;;;;;;;;;;10484536;28;20143;-62
2023/05/18 12:49:37;;;;;;;1.58;0.98;;;;;;;;;;10486018;28;20032;-62
2023/05/18 12:55:20;;;;;;;1.75;1.10;;;;;;;;;;10485600;28;20093;-62
2023/05/18 13:00:22;;;;;;;1.17;1.10;;;;;;;;;;10466769;28;20059;-63
2023/05/18 13:05:24;;;;;;;2.58;1.13;;;;;;;;;;10476088;28;20060;-63
2023/05/18 13:10:28;;;;;;;1.63;1.17;;;;;;;;;;10486411;28;20446;-62
2023/05/18 13:15:34;;;;;;;1.15;0.90;;;;;;;;;;10482966;28;20021;-63
2023/05/18 13:20:41;;;;;;;1.80;1.42;;;;;;;;;;10486374;28;20353;-63
2023/05/18 13:25:43;;;;;;;1.02;1.00;;;;;;;;;;10486548;28;20391;-63
2023/05/18 13:30:46;;;;;;;1.33;1.17;;;;;;;;;;10487731;28;20515;-63
2023/05/18 13:35:48;;;;;;;2.05;1.02;;;;;;;;;;10487479;28;20047;-63
2023/05/18 13:40:49;;;;;;;2.15;1.10;;;;;;;;;;10486853;28;20106;-63
2023/05/18 13:45:49;;;;;;;1.25;1.13;;;;;;;;;;10486492;28;20496;-63
2023/05/18 13:50:50;;;;;;;2.05;1.15;;;;;;;;;;10486768;28;20586;-63
2023/05/18 13:55:50;;;;;;;1.35;1.00;;;;;;;;;;10474886;28;20083;-63
2023/05/18 14:00:53;;;;;;;2.88;1.40;;;;;;;;;;10485322;28;20047;-63
2023/05/18 14:05:54;;;;;;;3.83;1.05;;;;;;;;;;10474312;28;20028;-63
2023/05/18 14:10:54;;;;;;;1.60;1.20;;;;;;;;;;10476284;28;20028;-63
2023/05/18 14:15:55;;;;;;;1.63;1.30;;;;;;;;;;10485851;28;20091;-62
2023/05/18 14:21:00;;;;;;;1.55;1.17;;;;;;;;;;10485677;28;20064;-62
2023/05/18 14:26:01;;;;;;;6.05;1.20;;;;;;;;;;10490665;28;20369;-62
2023/05/18 14:31:02;;;;;;;2.03;1.42;;;;;;;;;;10493777;28;20020;-63
2023/05/18 14:36:02;;;;;;;4.80;1.80;;;;;;;;;;10492689;28;20094;-62
2023/05/18 14:41:03;;;;;;;10.25;2.00;;;;;;;;;;10491479;28;20108;-63
2023/05/18 14:46:04;;;;;;;6.78;2.13;;;;;;;;;;10492854;28;20098;-62
2023/05/18 14:51:04;;;;;;;6.05;2.35;;;;;;;;;;10491767;28;20025;-63
2023/05/18 14:56:07;;;;;;;7.10;2.05;;;;;;;;;;10484263;28;20032;-62
2023/05/18 15:01:08;;;;;;;39.25;3.10;;;;;;;;;;10485020;28;20052;-62
2023/05/18 15:06:08;;;;;;;165.30;7.30;;;;;;;;;;10491832;28;20495;-60
2023/05/18 15:11:09;;;;;;;31.33;3.25;;;;;;;;;;10491469;28;20487;-66
2023/05/18 15:16:10;;;;;;;24.15;2.60;;;;;;;;;;10489421;28;20025;-61
2023/05/18 15:21:11;;;;;;;14.18;2.42;;;;;;;;;;10491898;28;20206;-63
2023/05/18 15:26:11;;;;;;;26.40;1.98;;;;;;;;;;10491199;28;20552;-62
2023/05/18 15:31:12;;;;;;;15.40;2.13;;;;;;;;;;10492008;28;20582;-62
2023/05/18 15:36:12;;;;;;;8.67;1.60;;;;;;;;;;10491167;28;20016;-60
2023/05/18 15:41:12;;;;;;;7.93;1.90;;;;;;;;;;10489103;28;20473;-67
2023/05/18 15:46:13;;;;;;;2.72;1.50;;;;;;;;;;10489862;28;20094;-62
2023/05/18 15:51:13;;;;;;;5.40;1.42;;;;;;;;;;10487732;28;20025;-61
2023/05/18 15:56:14;;;;;;;2.25;1.38;;;;;;;;;;10476787;28;20021;-66
2023/05/18 16:01:14;;;;;;;4.55;1.35;;;;;;;;;;10489160;28;20035;-66
2023/05/18 16:06:16;;;;;;;3.33;1.30;;;;;;;;;;10489102;28;20164;-61
2023/05/18 16:11:16;;;;;;;1.20;1.10;;;;;;;;;;10490022;28;20128;-60
2023/05/18 16:16:17;;;;;;;3.22;1.38;;;;;;;;;;10488159;28;20021;-61
2023/05/18 16:21:18;;;;;;;3.53;1.48;;;;;;;;;;10487127;28;20121;-67
2023/05/18 16:26:18;;;;;;;2.05;1.33;;;;;;;;;;10487162;28;20102;-65
2023/05/18 16:31:19;;;;;;;3.67;1.30;;;;;;;;;;10488500;28;20021;-61
2023/05/18 16:36:19;;;;;;;2.25;1.20;;;;;;;;;;10487222;28;20454;-64
2023/05/18 16:41:20;;;;;;;3.72;1.73;;;;;;;;;;10485609;28;20028;-60
2023/05/18 16:46:21;;;;;;;2.30;1.27;;;;;;;;;;10488142;28;20056;-66
2023/05/18 16:51:21;;;;;;;1.33;1.13;;;;;;;;;;10486740;28;20472;-60
2023/05/18 16:56:22;;;;;;;1.90;1.20;;;;;;;;;;10487724;28;20025;-61
2023/05/18 17:01:22;;;;;;;2.30;1.40;;;;;;;;;;10473580;28;20036;-64
2023/05/18 17:06:24;;;;;;;2.50;1.20;;;;;;;;;;10485426;28;20120;-61
2023/05/18 17:11:25;;;;;;;2.63;1.17;;;;;;;;;;10485426;28;20036;-60
2023/05/18 17:16:27;;;;;;;1.08;0.88;;;;;;;;;;10485689;28;20387;-60
2023/05/18 17:21:29;;;;;;;4.53;1.52;;;;;;;;;;10477181;28;20044;-72
2023/05/18 17:26:31;;;;;;;1.65;1.17;;;;;;;;;;10486532;28;20040;-63
2023/05/18 17:31:32;;;;;;;2.33;1.25;;;;;;;;;;10486342;28;20472;-60
2023/05/18 17:36:32;;;;;;;2.63;1.30;;;;;;;;;;10476397;28;20039;-70
2023/05/18 17:41:33;;;;;;;3.60;1.50;;;;;;;;;;10477254;28;20060;-61
2023/05/18 17:46:33;;;;;;;2.88;1.30;;;;;;;;;;10482450;28;20468;-64
2023/05/18 17:51:34;;;;;;;3.83;1.60;;;;;;;;;;10478993;28;20097;-61
2023/05/18 17:56:34;;;;;;;1.35;1.20;;;;;;;;;;10483444;28;20526;-63
2023/05/18 18:01:35;;;;;;;4.28;1.55;;;;;;;;;;10490659;28;20463;-66
2023/05/18 18:06:35;;;;;;;2.05;1.42;;;;;;;;;;10491572;28;20468;-61
2023/05/18 18:11:36;;;;;;;6.88;1.90;;;;;;;;;;10489725;28;20024;-61
2023/05/18 18:16:37;;;;;;;2.33;1.83;;;;;;;;;;10487628;28;20028;-61
2023/05/18 18:21:37;;;;;;;1.75;1.45;;;;;;;;;;10491885;28;20033;-66
2023/05/18 18:26:39;;;;;;;1.58;1.45;;;;;;;;;;10492800;28;20120;-61
2023/05/18 18:31:40;;;;;;;4.13;2.60;;;;;;;;;;10483613;28;20024;-61
2023/05/18 18:36:40;;;;;;;5.07;2.60;;;;;;;;;;10488668;28;20028;-63
2023/05/18 18:41:41;;;;;;;4.30;2.60;;;;;;;;;;10488304;28;20565;-61
2023/05/18 18:46:41;;;;;;;3.42;2.70;;;;;;;;;;10490336;28;20495;-67
2023/05/18 18:51:42;;;;;;;3.07;2.43;;;;;;;;;;10490030;28;20036;-61
2023/05/18 18:56:42;;;;;;;6.63;2.93;;;;;;;;;;10482857;28;20449;-61
2023/05/18 19:01:43;;;;;;;4.15;2.60;;;;;;;;;;10491723;28;20546;-61
2023/05/18 19:06:45;;;;;;;4.07;2.60;;;;;;;;;;10486446;28;20029;-63
2023/05/18 19:11:45;;;;;;;2.85;2.60;;;;;;;;;;10480430;28;20085;-61
2023/05/18 19:16:46;;;;;;;4.78;2.65;;;;;;;;;;10489901;28;20552;-62
2023/05/18 19:21:46;;;;;;;4.00;2.30;;;;;;;;;;10489909;28;20251;-62
2023/05/18 19:26:47;;;;;;;6.22;2.40;;;;;;;;;;10483909;28;20852;-61
2023/05/18 19:31:47;;;;;;;11.23;2.70;;;;;;;;;;10486664;28;20017;-62
2023/05/18 19:36:48;;;;;;;13.63;3.20;;;;;;;;;;10487094;28;20473;-61
2023/05/18 19:41:49;;;;;;;6.13;2.97;;;;;;;;;;10483475;28;20568;-61
2023/05/18 19:46:49;;;;;;;12.77;2.92;;;;;;;;;;10493617;22;20045;-60
2023/05/18 19:51:50;;;;;;;13.48;2.92;;;;;;;;;;10443698;28;20033;-58
2023/05/18 19:56:50;;;;;;;12.30;3.20;;;;;;;;;;10397066;28;20493;-59
2023/05/18 20:01:52;;;;;;;7.65;2.50;;;;;;;;;;10402053;28;20557;-59
2023/05/18 20:06:56;;;;;;;9.55;2.72;;;;;;;;;;10402109;28;20097;-61
2023/05/18 20:11:57;;;;;;;4.63;2.40;;;;;;;;;;10405067;28;20033;-61
2023/05/18 20:16:58;;;;;;;4.35;2.85;;;;;;;;;;10383991;28;20034;-62
2023/05/18 20:21:58;;;;;;;14.65;3.38;;;;;;;;;;10405810;28;20508;-59
2023/05/18 20:26:59;;;;;;;5.88;2.70;;;;;;;;;;10406293;28;20031;-61
2023/05/18 20:32:00;;;;;;;11.35;3.15;;;;;;;;;;10405189;28;20108;-61
2023/05/18 20:37:01;;;;;;;7.95;2.67;;;;;;;;;;10389196;28;20057;-59
2023/05/18 20:42:03;;;;;;;5.45;2.38;;;;;;;;;;10391415;28;20025;-57
2023/05/18 20:47:04;;;;;;;4.93;2.40;;;;;;;;;;10404840;28;20045;-57
2023/05/18 20:52:05;;;;;;;7.93;2.58;;;;;;;;;;10404988;28;20477;-56
2023/05/18 20:57:05;;;;;;;6.78;2.90;;;;;;;;;;10402555;28;20029;-58
2023/05/18 21:02:06;;;;;;;8.27;3.25;;;;;;;;;;10391679;28;20029;-61
2023/05/18 21:07:08;;;;;;;5.05;2.35;;;;;;;;;;10397322;28;20022;-61
2023/05/18 21:12:09;;;;;;;4.93;2.40;;;;;;;;;;10397797;28;20025;-61
2023/05/18 21:17:09;;;;;;;7.88;2.80;;;;;;;;;;10389459;28;20030;-60
2023/05/18 21:22:10;;;;;;;4.78;2.50;;;;;;;;;;10394488;28;20623;-62
2023/05/18 21:27:10;;;;;;;10.07;2.50;;;;;;;;;;10404610;28;20657;-60
2023/05/18 21:32:11;;;;;;;6.03;3.10;;;;;;;;;;10399294;28;20080;-59
2023/05/18 21:37:11;;;;;;;6.35;2.50;;;;;;;;;;10409960;28;21004;-58
2023/05/18 21:42:12;;;;;;;3.90;2.50;;;;;;;;;;10410933;28;20041;-60
2023/05/18 21:47:12;;;;;;;4.93;2.63;;;;;;;;;;10404058;28;20476;-61
2023/05/18 21:52:14;;;;;;;4.35;2.78;;;;;;;;;;10405952;28;20517;-59
2023/05/18 21:57:14;;;;;;;5.45;2.78;;;;;;;;;;10410175;28;20022;-56
2023/05/18 22:02:14;;;;;;;5.33;2.90;;;;;;;;;;10410817;28;20037;-57
2023/05/18 22:07:15;;;;;;;9.18;3.15;;;;;;;;;;10410471;28;20443;-57
2023/05/18 22:12:15;;;;;;;3.90;2.22;;;;;;;;;;10409977;28;20040;-58
2023/05/18 22:17:16;;;;;;;5.15;2.53;;;;;;;;;;10411807;28;20477;-56
2023/05/18 22:22:18;;;;;;;5.13;2.55;;;;;;;;;;10408567;28;20037;-60
2023/05/18 22:27:19;;;;;;;4.85;2.55;;;;;;;;;;10409855;28;20507;-58
2023/05/18 22:32:19;;;;;;;4.30;2.97;;;;;;;;;;10407467;28;20037;-57
2023/05/18 22:37:20;;;;;;;5.30;2.57;;;;;;;;;;10409377;28;20977;-57
2023/05/18 22:42:20;;;;;;;9.40;2.60;;;;;;;;;;10404802;28;20482;-57
2023/05/18 22:47:22;;;;;;;3.50;2.63;;;;;;;;;;10397318;28;20470;-51
2023/05/18 22:52:22;;;;;;;7.05;2.78;;;;;;;;;;10410575;28;20040;-54
2023/05/18 22:57:23;;;;;;;4.82;2.80;;;;;;;;;;10399099;28;20030;-55
2023/05/18 23:02:23;;;;;;;3.80;2.67;;;;;;;;;;10408034;28;20098;-51
2023/05/18 23:07:24;;;;;;;4.63;3.03;;;;;;;;;;10408880;28;20489;-57
2023/05/18 23:12:24;;;;;;;3.13;2.63;;;;;;;;;;10406257;28;20025;-57
2023/05/18 23:17:25;;;;;;;2.42;2.25;;;;;;;;;;10408770;28;20021;-57
2023/05/18 23:22:25;;;;;;;2.90;2.60;;;;;;;;;;10409540;28;20018;-57
2023/05/18 23:27:26;;;;;;;3.73;2.63;;;;;;;;;;10409280;28;20017;-57
2023/05/18 23:32:27;;;;;;;12.97;2.90;;;;;;;;;;10408589;28;20515;-57
2023/05/18 23:37:27;;;;;;;5.80;3.00;;;;;;;;;;10408174;28;20463;-57
2023/05/18 23:42:28;;;;;;;5.32;2.60;;;;;;;;;;10400654;28;20025;-57
2023/05/18 23:47:29;;;;;;;4.85;2.50;;;;;;;;;;10408511;28;20034;-57
2023/05/18 23:52:31;;;;;;;5.05;3.08;;;;;;;;;;10395667;28;20024;-57
2023/05/18 23:57:32;;;;;;;4.43;2.70;;;;;;;;;;10395531;28;20588;-57
